Terminal Aerodrome Forecast
Issued by NWS

Current Version | Previous Version | Text Only | Print | Product List | Glossary On
Versions: 1 2 3 4 5 6 7 8 9 10 11 12 13
000
FTUS46 KSTO 251720
TAFSMF
TAF
KSMF 251720Z 2518/2618 17006KT P6SM SCT050 BKN250
     FM252200 21006KT P6SM BKN050 BKN150
     FM260300 17005KT P6SM SCT150=

USA.gov is the U.S. government's official web portal to all federal, state and local government web resources and services.